createdAt,value
2018-07-03T00:00:43.403Z,65.87
2018-07-03T00:03:12.218Z,66.23
2018-07-03T00:05:40.850Z,65.90
2018-07-03T00:08:09.698Z,66.06
2018-07-03T00:10:38.515Z,65.83
2018-07-03T00:13:07.348Z,65.92
2018-07-03T00:15:36.161Z,66.70
2018-07-03T00:18:05.527Z,66.84
2018-07-03T00:20:34.335Z,66.73
2018-07-03T00:23:03.184Z,66.78
2018-07-03T00:25:31.965Z,67.52
2018-07-03T00:28:00.838Z,68.02
2018-07-03T00:30:29.583Z,67.67
2018-07-03T00:32:58.456Z,68.37
2018-07-03T00:35:27.204Z,71.20
2018-07-03T00:37:55.912Z,69.26
2018-07-03T00:40:24.751Z,72.32
2018-07-03T00:42:53.512Z,73.78
2018-07-03T00:45:28.239Z,71.81
2018-07-03T00:47:57.002Z,70.89
2018-07-03T00:50:25.831Z,71.12
2018-07-03T00:52:54.612Z,71.49
2018-07-03T00:55:23.499Z,72.29
2018-07-03T00:57:52.252Z,74.42
2018-07-03T01:00:31.488Z,74.23
2018-07-03T01:03:00.884Z,73.92
2018-07-03T01:05:29.812Z,72.54
2018-07-03T01:07:58.676Z,72.58
2018-07-03T01:10:28.086Z,72.96
2018-07-03T01:12:57.556Z,72.48
2018-07-03T01:15:27.401Z,73.98
2018-07-03T01:17:56.501Z,73.15
2018-07-03T01:20:25.641Z,74.14
2018-07-03T01:22:54.504Z,73.95
2018-07-03T01:25:23.331Z,74.33
2018-07-03T01:27:52.088Z,73.33
2018-07-03T01:30:20.986Z,73.00
2018-07-03T01:32:49.774Z,74.06
2018-07-03T01:35:18.616Z,74.74
2018-07-03T01:37:47.393Z,74.49
2018-07-03T01:40:16.199Z,74.89
2018-07-03T01:42:45.047Z,74.80
2018-07-03T01:45:19.954Z,75.52
2018-07-03T01:47:48.791Z,74.54
2018-07-03T01:50:17.955Z,74.27
2018-07-03T01:52:46.838Z,74.39
2018-07-03T01:55:15.605Z,74.30
2018-07-03T01:57:44.308Z,74.19
2018-07-03T02:00:13.078Z,74.30
2018-07-03T02:02:41.734Z,76.59
2018-07-03T02:05:10.615Z,75.65
2018-07-03T02:07:39.431Z,76.62
2018-07-03T02:10:08.211Z,76.37
2018-07-03T02:12:37.084Z,76.68
2018-07-03T02:15:05.885Z,75.74
2018-07-03T02:17:34.748Z,76.34
2018-07-03T02:20:03.977Z,78.57
2018-07-03T02:22:32.752Z,79.24
2018-07-03T02:25:01.603Z,77.29
2018-07-03T02:27:30.395Z,77.33
2018-07-03T02:29:59.301Z,79.05
2018-07-03T02:32:28.134Z,78.05
2018-07-03T02:34:56.951Z,77.22
2018-07-03T02:37:25.737Z,78.55
2018-07-03T02:39:54.379Z,77.55
2018-07-03T02:42:23.224Z,77.81
2018-07-03T02:44:52.351Z,77.41
2018-07-03T02:47:21.140Z,77.33
2018-07-03T02:49:49.938Z,77.72
2018-07-03T02:52:18.703Z,78.92
2018-07-03T02:54:47.728Z,81.00
2018-07-03T02:57:16.544Z,78.69
2018-07-03T02:59:45.333Z,78.78
2018-07-03T03:02:14.476Z,79.32
2018-07-03T03:04:43.311Z,81.98
2018-07-03T03:07:12.187Z,79.82
2018-07-03T03:09:40.960Z,81.42
2018-07-03T03:12:09.794Z,82.26
2018-07-03T03:14:38.571Z,80.60
2018-07-03T03:17:07.391Z,80.02
2018-07-03T03:19:36.221Z,81.88
2018-07-03T03:22:05.219Z,82.96
2018-07-03T03:24:33.972Z,81.34
2018-07-03T03:27:02.647Z,80.43
2018-07-03T03:29:31.810Z,80.92
2018-07-03T03:32:01.077Z,80.32
2018-07-03T03:34:30.117Z,79.66
2018-07-03T03:36:58.932Z,80.21
2018-07-03T03:39:27.680Z,80.85
2018-07-03T03:41:56.548Z,82.33
2018-07-03T03:44:25.363Z,81.55
2018-07-03T03:46:54.138Z,81.04
2018-07-03T03:49:22.954Z,77.68
2018-07-03T03:51:51.734Z,78.38
2018-07-03T03:54:20.563Z,75.87
2018-07-03T03:56:49.480Z,76.28
2018-07-03T03:59:18.279Z,73.33
2018-07-03T04:01:47.099Z,74.08
2018-07-03T04:04:16.216Z,72.88
2018-07-03T04:06:45.020Z,72.67
2018-07-03T04:09:15.255Z,74.67
2018-07-03T04:11:43.881Z,76.65
2018-07-03T04:14:12.706Z,77.84
2018-07-03T04:16:41.483Z,77.10
2018-07-03T04:19:10.352Z,76.27
2018-07-03T04:21:39.206Z,76.78
2018-07-03T04:24:08.083Z,75.41
2018-07-03T04:26:36.859Z,73.34
2018-07-03T04:29:05.713Z,71.10
2018-07-03T04:31:34.488Z,70.48
2018-07-03T04:34:03.363Z,70.16
2018-07-03T04:36:31.974Z,70.19
2018-07-03T04:39:00.759Z,69.63
2018-07-03T04:41:29.614Z,68.55
2018-07-03T04:43:58.383Z,68.00
2018-07-03T04:46:27.257Z,68.02
2018-07-03T04:48:56.053Z,68.62
2018-07-03T04:51:24.880Z,70.36
2018-07-03T04:53:53.513Z,69.93
2018-07-03T04:56:22.383Z,69.32
2018-07-03T04:58:51.394Z,69.44
2018-07-03T05:01:20.204Z,70.74
2018-07-03T05:03:48.979Z,68.23
2018-07-03T05:06:18.629Z,67.33
2018-07-03T05:08:47.438Z,67.74
2018-07-03T05:11:16.758Z,68.38
2018-07-03T05:13:45.520Z,67.87
2018-07-03T05:16:14.311Z,66.41
2018-07-03T05:18:42.904Z,67.81
2018-07-03T05:21:11.703Z,68.41
2018-07-03T05:23:40.571Z,70.03
2018-07-03T05:26:09.375Z,68.42
2018-07-03T05:28:38.135Z,67.87
2018-07-03T05:31:07.041Z,68.23
2018-07-03T05:33:35.938Z,69.11
2018-07-03T05:36:04.961Z,69.24
2018-07-03T05:38:33.739Z,67.59
2018-07-03T05:41:02.571Z,65.47
2018-07-03T05:43:31.466Z,66.01
2018-07-03T05:46:00.265Z,66.25
2018-07-03T05:48:29.149Z,65.96
2018-07-03T05:50:57.946Z,66.43
2018-07-03T05:53:26.811Z,65.81
2018-07-03T05:55:55.611Z,66.40
2018-07-03T05:58:24.491Z,67.51
2018-07-03T06:00:53.390Z,66.42
2018-07-03T06:03:22.198Z,67.06
2018-07-03T06:05:51.047Z,65.81
2018-07-03T06:08:19.855Z,65.28
2018-07-03T06:10:48.609Z,65.28
2018-07-03T06:13:17.502Z,64.29
2018-07-03T06:15:46.109Z,63.56
2018-07-03T06:18:15.023Z,62.47
2018-07-03T06:20:43.779Z,62.63
2018-07-03T06:23:12.427Z,62.05
2018-07-03T06:25:41.250Z,60.04
2018-07-03T06:28:10.069Z,58.38
2018-07-03T06:30:38.851Z,59.12
2018-07-03T06:33:07.843Z,57.52
2018-07-03T06:35:36.607Z,56.76
2018-07-03T06:38:05.441Z,55.09
2018-07-03T06:40:34.288Z,57.13
2018-07-03T06:43:03.088Z,57.00
2018-07-03T06:45:38.015Z,53.93
2018-07-03T06:48:06.876Z,53.33
2018-07-03T06:50:35.690Z,52.08
2018-07-03T06:53:04.294Z,51.51
2018-07-03T06:55:33.100Z,50.15
2018-07-03T06:58:02.124Z,52.52
2018-07-03T07:00:31.025Z,50.38
2018-07-03T07:02:59.792Z,49.62
2018-07-03T07:05:28.706Z,48.97
2018-07-03T07:07:57.491Z,47.58
2018-07-03T07:10:26.284Z,49.60
2018-07-03T07:12:55.148Z,49.01
2018-07-03T07:15:23.975Z,49.34
2018-07-03T07:17:52.791Z,48.22
2018-07-03T07:20:21.415Z,48.52
2018-07-03T07:22:50.289Z,47.42
2018-07-03T07:25:19.132Z,44.80
2018-07-03T07:27:47.958Z,43.21
2018-07-03T07:30:16.562Z,46.89
2018-07-03T07:32:45.394Z,45.71
2018-07-03T07:35:14.216Z,44.31
2018-07-03T07:37:43.121Z,45.62
2018-07-03T07:40:11.907Z,43.60
2018-07-03T07:42:40.732Z,43.94
2018-07-03T07:45:09.503Z,42.29
2018-07-03T07:47:38.336Z,42.65
2018-07-03T07:50:07.184Z,43.89
2018-07-03T07:52:36.005Z,43.40
2018-07-03T07:55:04.860Z,43.17
2018-07-03T07:57:33.775Z,42.13
2018-07-03T08:00:02.603Z,43.20
2018-07-03T08:02:31.488Z,41.31
2018-07-03T08:05:00.373Z,41.70
2018-07-03T08:07:29.161Z,42.01
2018-07-03T08:09:57.992Z,40.27
2018-07-03T08:12:26.593Z,41.09
2018-07-03T08:14:55.561Z,40.66
2018-07-03T08:17:24.350Z,39.67
2018-07-03T08:19:53.207Z,39.32
2018-07-03T08:22:22.011Z,39.86
2018-07-03T08:24:50.834Z,40.24
2018-07-03T08:27:19.683Z,38.67
2018-07-03T08:29:48.500Z,38.16
2018-07-03T08:32:17.172Z,38.66
2018-07-03T08:34:45.991Z,38.13
2018-07-03T08:37:14.603Z,36.94
2018-07-03T08:39:43.492Z,37.41
2018-07-03T08:42:12.399Z,36.26
2018-07-03T08:44:41.203Z,36.29
2018-07-03T08:47:10.069Z,37.80
2018-07-03T08:49:38.893Z,37.91
2018-07-03T08:52:07.787Z,35.46
2018-07-03T08:54:36.638Z,34.44
2018-07-03T08:57:05.464Z,33.96
2018-07-03T08:59:34.232Z,31.05
2018-07-03T09:02:03.156Z,31.85
2018-07-03T09:04:32.379Z,28.92
2018-07-03T09:07:01.241Z,28.41
2018-07-03T09:09:30.091Z,29.55
2018-07-03T09:11:59.328Z,30.46
2018-07-03T09:14:28.116Z,28.16
2018-07-03T09:16:57.082Z,29.99
2018-07-03T09:19:26.029Z,29.78
2018-07-03T09:21:54.959Z,30.22
2018-07-03T09:24:23.727Z,29.08
2018-07-03T09:26:52.890Z,27.77
2018-07-03T09:29:21.762Z,29.10
2018-07-03T09:31:50.599Z,28.86
2018-07-03T09:34:19.659Z,29.47
2018-07-03T09:36:48.434Z,30.46
2018-07-03T09:39:17.251Z,30.30
2018-07-03T09:41:46.411Z,30.24
2018-07-03T09:44:15.168Z,30.62
2018-07-03T09:46:43.901Z,29.97
2018-07-03T09:49:13.017Z,31.30
2018-07-03T09:51:41.779Z,29.53
2018-07-03T09:54:10.611Z,29.36
2018-07-03T09:56:39.536Z,28.85
2018-07-03T09:59:08.341Z,29.72
2018-07-03T10:01:37.439Z,28.74
2018-07-03T10:04:06.572Z,30.87
2018-07-03T10:06:35.473Z,32.03
2018-07-03T10:09:07.322Z,32.25
2018-07-03T10:11:36.105Z,30.02
2018-07-03T10:14:04.918Z,29.15
2018-07-03T10:16:34.099Z,30.10
2018-07-03T10:19:02.959Z,30.28
2018-07-03T10:21:31.745Z,30.66
2018-07-03T10:24:00.882Z,32.27
2018-07-03T10:26:29.700Z,30.95
2018-07-03T10:28:59.088Z,31.22
2018-07-03T10:31:29.058Z,32.31
2018-07-03T10:33:57.952Z,32.53
2018-07-03T10:36:26.992Z,30.10
2018-07-03T10:38:56.076Z,31.71
2018-07-03T10:41:24.873Z,33.05
2018-07-03T10:43:53.817Z,34.24
2018-07-03T10:46:22.731Z,33.11
2018-07-03T10:48:51.517Z,32.41
2018-07-03T10:51:20.333Z,33.34
2018-07-03T10:53:49.531Z,33.67
2018-07-03T10:56:18.384Z,34.05
2018-07-03T10:58:47.401Z,34.46
2018-07-03T11:01:16.331Z,33.53
2018-07-03T11:03:45.090Z,33.75
2018-07-03T11:06:13.869Z,33.31
2018-07-03T11:08:43.503Z,32.61
2018-07-03T11:11:12.296Z,32.01
2018-07-03T11:13:41.126Z,32.48
2018-07-03T11:16:10.180Z,32.48
2018-07-03T11:18:38.932Z,32.56
2018-07-03T11:21:08.151Z,32.27
2018-07-03T11:23:37.258Z,31.92
2018-07-03T11:26:06.164Z,30.91
2018-07-03T11:28:34.925Z,32.82
2018-07-03T11:31:04.040Z,34.04
2018-07-03T11:33:32.925Z,34.38
2018-07-03T11:36:01.699Z,33.74
2018-07-03T11:38:30.776Z,33.65
2018-07-03T11:40:59.653Z,34.18
2018-07-03T11:43:28.275Z,33.76
2018-07-03T11:46:03.515Z,33.88
2018-07-03T11:48:32.298Z,33.66
2018-07-03T11:51:01.096Z,34.29
2018-07-03T11:53:30.025Z,34.78
2018-07-03T11:55:59.006Z,33.92
2018-07-03T11:58:28.011Z,34.81
2018-07-03T12:00:57.307Z,34.53
2018-07-03T12:03:26.116Z,35.23
2018-07-03T12:05:55.147Z,35.51
2018-07-03T12:08:24.305Z,36.75
2018-07-03T12:10:53.150Z,37.02
2018-07-03T12:13:21.944Z,36.87
2018-07-03T12:15:50.907Z,37.07
2018-07-03T12:18:25.190Z,37.22
2018-07-03T12:20:54.390Z,37.42
2018-07-03T12:23:23.251Z,37.70
2018-07-03T12:25:52.087Z,37.69
2018-07-03T12:28:21.488Z,37.94
2018-07-03T12:30:50.325Z,38.02
2018-07-03T12:33:18.994Z,37.42
2018-07-03T12:35:47.972Z,37.82
2018-07-03T12:38:16.756Z,37.21
2018-07-03T12:40:45.623Z,36.72
2018-07-03T12:43:14.580Z,37.01
2018-07-03T12:45:49.338Z,37.27
2018-07-03T12:48:18.224Z,37.85
2018-07-03T12:50:47.051Z,37.33
2018-07-03T12:53:16.177Z,37.66
2018-07-03T12:55:45.307Z,37.84
2018-07-03T12:58:14.156Z,37.12
2018-07-03T13:00:42.974Z,36.72
2018-07-03T13:03:12.087Z,36.50
2018-07-03T13:05:40.915Z,35.43
2018-07-03T13:08:09.947Z,36.96
2018-07-03T13:10:39.179Z,35.85
2018-07-03T13:13:08.075Z,35.75
2018-07-03T13:15:36.865Z,35.99
2018-07-03T13:18:12.112Z,36.84
2018-07-03T13:20:41.080Z,36.38
2018-07-03T13:23:10.411Z,36.08
2018-07-03T13:25:39.595Z,35.35
2018-07-03T13:28:08.494Z,35.66
2018-07-03T13:30:37.298Z,35.42
2018-07-03T13:33:07.248Z,35.49
2018-07-03T13:35:36.033Z,35.43
2018-07-03T13:38:05.362Z,36.00
2018-07-03T13:40:34.519Z,35.55
2018-07-03T13:43:03.311Z,34.41
2018-07-03T13:45:38.616Z,35.57
2018-07-03T13:48:07.491Z,35.62
2018-07-03T13:50:36.259Z,36.16
2018-07-03T13:53:05.495Z,36.62
2018-07-03T13:55:34.634Z,35.99
2018-07-03T13:58:03.296Z,35.79
2018-07-03T14:00:32.485Z,36.29
2018-07-03T14:03:01.251Z,36.80
2018-07-03T14:05:30.040Z,37.06
2018-07-03T14:07:59.004Z,37.75
2018-07-03T14:10:27.789Z,37.07
2018-07-03T14:12:56.560Z,37.02
2018-07-03T14:15:26.149Z,36.95
2018-07-03T14:17:55.873Z,36.65
2018-07-03T14:20:24.719Z,35.50
2018-07-03T14:22:53.845Z,36.02
2018-07-03T14:25:22.689Z,37.04
2018-07-03T14:27:51.483Z,36.64
2018-07-03T14:30:20.621Z,36.91
2018-07-03T14:32:49.254Z,37.24
2018-07-03T14:35:17.861Z,37.23
2018-07-03T14:37:46.992Z,38.17
2018-07-03T14:40:15.795Z,37.49
2018-07-03T14:42:44.559Z,36.61
2018-07-03T14:45:14.186Z,36.48
2018-07-03T14:47:42.979Z,38.30
2018-07-03T14:50:11.896Z,37.93
2018-07-03T14:52:40.693Z,37.16
2018-07-03T14:55:09.294Z,37.07
2018-07-03T14:57:38.161Z,36.61
2018-07-03T15:00:07.533Z,37.09
2018-07-03T15:02:36.324Z,36.39
2018-07-03T15:05:05.465Z,37.16
2018-07-03T15:07:34.603Z,37.46
2018-07-03T15:10:03.598Z,37.09
2018-07-03T15:12:32.380Z,37.86
2018-07-03T15:15:01.501Z,38.53
2018-07-03T15:17:30.415Z,38.62
2018-07-03T15:19:59.655Z,37.24
2018-07-03T15:22:28.655Z,38.04
2018-07-03T15:24:57.434Z,38.19
2018-07-03T15:27:26.249Z,38.05
2018-07-03T15:29:55.565Z,38.59
2018-07-03T15:32:24.335Z,38.27
2018-07-03T15:34:53.163Z,37.80
2018-07-03T15:37:22.647Z,38.36
2018-07-03T15:39:51.480Z,38.46
2018-07-03T15:42:20.290Z,38.49
2018-07-03T15:45:07.750Z,38.17
2018-07-03T15:47:36.591Z,38.35
2018-07-03T15:50:06.662Z,38.38
2018-07-03T15:52:35.546Z,38.73
2018-07-03T15:55:04.784Z,38.71
2018-07-03T15:57:33.751Z,39.14
2018-07-03T16:00:02.716Z,37.88
2018-07-03T16:02:31.507Z,37.32
2018-07-03T16:05:18.598Z,38.28
2018-07-03T16:09:56.995Z,38.64
2018-07-03T16:12:25.841Z,37.50
2018-07-03T16:14:54.767Z,35.83
2018-07-03T16:17:23.586Z,33.85
2018-07-03T16:19:57.857Z,33.82
2018-07-03T16:22:26.688Z,33.63
2018-07-03T16:24:55.644Z,34.22
2018-07-03T16:27:24.431Z,35.30
2018-07-03T16:29:53.293Z,37.27
2018-07-03T16:32:22.108Z,37.82
2018-07-03T16:34:50.966Z,38.68
2018-07-03T16:37:19.840Z,38.25
2018-07-03T16:39:48.631Z,36.39
2018-07-03T16:42:17.469Z,36.72
2018-07-03T16:44:46.244Z,37.00
2018-07-03T16:47:15.049Z,36.55
2018-07-03T16:49:43.947Z,37.00
2018-07-03T16:52:12.808Z,36.56
2018-07-03T16:54:41.591Z,36.85
2018-07-03T16:57:10.447Z,36.29
2018-07-03T16:59:39.228Z,35.69
2018-07-03T17:02:08.165Z,36.05
2018-07-03T17:04:36.769Z,35.63
2018-07-03T17:07:05.701Z,35.67
2018-07-03T17:09:34.492Z,36.81
2018-07-03T17:12:03.359Z,36.50
2018-07-03T17:14:32.030Z,37.96
2018-07-03T17:17:00.860Z,38.47
2018-07-03T17:19:37.430Z,38.18
2018-07-03T17:22:06.548Z,37.99
2018-07-03T17:24:35.783Z,38.31
2018-07-03T17:27:05.383Z,38.73
2018-07-03T17:29:34.756Z,40.24
2018-07-03T17:32:03.719Z,39.77
2018-07-03T17:34:32.489Z,39.27
2018-07-03T17:37:01.499Z,39.65
2018-07-03T17:39:47.720Z,39.20
2018-07-03T17:44:41.611Z,38.87
2018-07-03T17:47:10.624Z,39.92
2018-07-03T17:49:39.448Z,40.62
2018-07-03T17:52:08.640Z,41.09
2018-07-03T17:54:37.796Z,41.39
2018-07-03T17:57:06.662Z,42.25
2018-07-03T17:59:35.468Z,42.46
2018-07-03T18:02:04.670Z,43.64
2018-07-03T18:04:33.483Z,44.16
2018-07-03T18:07:02.308Z,44.36
2018-07-03T18:09:31.121Z,43.75
2018-07-03T18:11:59.995Z,43.17
2018-07-03T18:14:28.817Z,42.97
2018-07-03T18:16:57.626Z,43.45
2018-07-03T18:19:31.815Z,43.74
2018-07-03T18:22:00.547Z,44.04
2018-07-03T18:24:29.457Z,44.75
2018-07-03T18:26:59.033Z,45.43
2018-07-03T18:29:28.017Z,45.41
2018-07-03T18:31:56.815Z,46.82
2018-07-03T18:34:25.604Z,47.88
2018-07-03T18:36:54.830Z,48.58
2018-07-03T18:39:23.462Z,47.85
2018-07-03T18:41:52.792Z,47.98
2018-07-03T18:44:21.575Z,48.12
2018-07-03T18:46:50.495Z,48.79
2018-07-03T18:49:19.435Z,48.83
2018-07-03T18:51:48.254Z,49.26
2018-07-03T18:54:17.053Z,49.35
2018-07-03T18:56:47.030Z,49.65
2018-07-03T18:59:15.865Z,49.84
2018-07-03T19:01:44.701Z,50.08
2018-07-03T19:04:14.034Z,50.60
2018-07-03T19:06:43.215Z,51.19
2018-07-03T19:09:12.106Z,51.62
2018-07-03T19:11:41.184Z,52.34
2018-07-03T19:14:10.035Z,53.13
2018-07-03T19:16:38.820Z,53.81
2018-07-03T19:19:08.147Z,55.26
2018-07-03T19:21:36.746Z,55.81
2018-07-03T19:24:05.417Z,57.06
2018-07-03T19:26:34.611Z,57.21
2018-07-03T19:29:03.525Z,58.08
2018-07-03T19:31:32.501Z,59.20
2018-07-03T19:34:01.419Z,60.29
2018-07-03T19:36:30.228Z,60.28
2018-07-03T19:38:58.938Z,61.04
2018-07-03T19:41:28.352Z,61.67
2018-07-03T19:43:57.013Z,62.26
2018-07-03T19:46:25.803Z,63.15
2018-07-03T19:48:54.920Z,63.47
2018-07-03T19:51:23.786Z,63.73
2018-07-03T19:53:52.615Z,63.81
2018-07-03T19:56:21.729Z,64.29
2018-07-03T19:58:50.852Z,64.24
2018-07-03T20:01:20.766Z,64.39
2018-07-03T20:03:49.793Z,64.66
2018-07-03T20:06:18.580Z,65.08
2018-07-03T20:08:47.404Z,65.55
2018-07-03T20:11:16.587Z,65.84
2018-07-03T20:13:45.498Z,65.24
2018-07-03T20:16:14.341Z,65.26
2018-07-03T20:18:43.452Z,65.81
2018-07-03T20:21:12.271Z,66.24
2018-07-03T20:23:41.068Z,66.72
2018-07-03T20:26:10.984Z,66.91
2018-07-03T20:28:39.996Z,67.31
2018-07-03T20:31:08.685Z,67.10
2018-07-03T20:33:37.633Z,68.00
2018-07-03T20:36:06.516Z,68.37
2018-07-03T20:38:35.295Z,68.53
2018-07-03T20:41:05.303Z,69.00
2018-07-03T20:43:36.511Z,68.79
2018-07-03T20:46:06.400Z,69.06
2018-07-03T20:48:35.207Z,69.85
2018-07-03T20:51:04.113Z,69.61
2018-07-03T20:53:33.486Z,69.88
2018-07-03T20:56:02.276Z,69.61
2018-07-03T20:58:31.139Z,69.88
2018-07-03T21:01:00.271Z,70.33
2018-07-03T21:03:29.177Z,70.42
2018-07-03T21:05:58.092Z,69.73
2018-07-03T21:08:27.253Z,70.17
2018-07-03T21:10:56.161Z,70.71
2018-07-03T21:13:25.043Z,70.26
2018-07-03T21:15:54.088Z,70.27
2018-07-03T21:18:23.179Z,71.62
2018-07-03T21:20:51.919Z,70.12
2018-07-03T21:23:21.009Z,70.74
2018-07-03T21:25:49.782Z,70.39
2018-07-03T21:28:18.534Z,71.57
2018-07-03T21:30:47.680Z,70.62
2018-07-03T21:33:16.431Z,71.08
2018-07-03T21:35:45.727Z,71.02
2018-07-03T21:38:14.973Z,71.39
2018-07-03T21:40:43.721Z,71.41
2018-07-03T21:43:12.519Z,71.51
2018-07-03T21:45:47.303Z,71.63
2018-07-03T21:48:16.107Z,71.96
2018-07-03T21:50:44.686Z,72.32
2018-07-03T21:53:13.780Z,72.13
2018-07-03T21:55:42.692Z,71.40
2018-07-03T21:58:11.286Z,71.67
2018-07-03T22:00:41.455Z,73.05
2018-07-03T22:03:11.267Z,72.73
2018-07-03T22:05:40.637Z,73.64
2018-07-03T22:08:09.765Z,72.71
2018-07-03T22:10:38.609Z,73.63
2018-07-03T22:13:07.365Z,73.78
2018-07-03T22:15:36.546Z,73.22
2018-07-03T22:18:05.455Z,72.88
2018-07-03T22:20:34.186Z,73.59
2018-07-03T22:23:03.079Z,73.63
2018-07-03T22:25:31.833Z,73.36
2018-07-03T22:28:00.577Z,73.89
2018-07-03T22:30:29.255Z,74.54
2018-07-03T22:32:58.001Z,73.66
2018-07-03T22:35:26.776Z,74.20
2018-07-03T22:37:56.189Z,74.47
2018-07-03T22:40:24.951Z,74.45
2018-07-03T22:42:53.585Z,74.35
2018-07-03T22:45:28.787Z,73.79
2018-07-03T22:47:57.548Z,73.66
2018-07-03T22:50:26.306Z,74.53
2018-07-03T22:52:55.290Z,74.26
2018-07-03T22:55:24.062Z,74.10
2018-07-03T22:57:52.895Z,73.95
2018-07-03T23:00:22.028Z,73.54
2018-07-03T23:02:50.780Z,74.26
2018-07-03T23:05:19.633Z,73.74
2018-07-03T23:07:48.478Z,73.82
2018-07-03T23:10:17.223Z,74.24
2018-07-03T23:12:45.829Z,74.84
2018-07-03T23:15:14.765Z,74.72
2018-07-03T23:17:43.410Z,74.94
2018-07-03T23:20:12.168Z,74.97
2018-07-03T23:22:41.235Z,75.66
2018-07-03T23:25:09.970Z,75.28
2018-07-03T23:27:38.706Z,75.53
2018-07-03T23:30:07.545Z,75.74
2018-07-03T23:32:36.121Z,77.95
2018-07-03T23:35:05.522Z,79.17
2018-07-03T23:37:34.428Z,79.20
2018-07-03T23:40:03.085Z,76.97
2018-07-03T23:42:31.888Z,76.51
2018-07-03T23:45:00.954Z,78.85
2018-07-03T23:47:46.443Z,79.24
2018-07-03T23:50:32.143Z,79.57
2018-07-03T23:53:17.811Z,79.37
2018-07-03T23:56:03.708Z,78.37
2018-07-03T23:58:49.455Z,79.35
